createdAt,value
2023-07-18T00:01:12.451Z,93033.00
2023-07-18T00:06:15.866Z,93028.69
2023-07-18T00:11:18.024Z,93056.88
2023-07-18T00:16:20.210Z,93065.94
2023-07-18T00:21:22.118Z,93071.81
2023-07-18T00:26:25.483Z,93064.28
2023-07-18T00:31:28.247Z,93060.34
2023-07-18T00:36:30.828Z,93039.16
2023-07-18T00:41:32.767Z,93066.22
2023-07-18T00:46:34.744Z,93040.34
2023-07-18T00:51:36.642Z,93026.78
2023-07-18T00:56:40.642Z,93020.00
2023-07-18T01:01:42.644Z,93053.31
2023-07-18T01:06:46.026Z,93053.31
2023-07-18T01:11:47.862Z,93020.38
2023-07-18T01:16:49.674Z,93031.09
2023-07-18T01:21:51.492Z,93026.28
2023-07-18T01:26:53.762Z,93003.22
2023-07-18T01:31:55.600Z,93008.22
2023-07-18T01:36:57.694Z,93011.47
2023-07-18T01:41:59.513Z,93018.25
2023-07-18T01:47:03.776Z,93015.88
2023-07-18T01:52:06.306Z,93009.16
2023-07-18T01:57:08.137Z,93012.66
2023-07-18T02:02:10.026Z,93012.59
2023-07-18T02:07:11.892Z,93002.34
2023-07-18T02:12:13.720Z,93014.19
2023-07-18T02:17:15.640Z,93005.88
2023-07-18T02:22:20.490Z,92997.69
2023-07-18T02:27:23.495Z,92998.13
2023-07-18T02:32:25.272Z,92986.38
2023-07-18T02:37:27.832Z,92982.50
2023-07-18T02:42:31.515Z,92977.09
2023-07-18T02:47:33.459Z,92954.78
2023-07-18T02:52:35.510Z,92973.56
2023-07-18T02:57:37.680Z,92961.44
2023-07-18T03:02:39.844Z,92972.34
2023-07-18T03:07:41.827Z,92946.34
2023-07-18T03:12:43.632Z,92986.38
2023-07-18T03:17:45.508Z,92980.50
2023-07-18T03:22:49.499Z,92980.03
2023-07-18T03:27:52.361Z,92963.03
2023-07-18T03:32:54.480Z,92934.78
2023-07-18T03:37:56.280Z,92970.34
2023-07-18T03:42:58.156Z,92981.28
2023-07-18T03:48:00.528Z,92948.75
2023-07-18T03:53:02.358Z,92962.25
2023-07-18T03:58:04.220Z,92967.50
2023-07-18T04:03:06.001Z,92969.84
2023-07-18T04:08:07.955Z,92963.69
2023-07-18T04:13:09.719Z,92980.50
2023-07-18T04:18:11.486Z,92910.22
2023-07-18T04:23:13.516Z,92984.44
2023-07-18T04:28:15.453Z,92978.22
2023-07-18T04:33:17.391Z,92980.94
2023-07-18T04:38:19.354Z,92974.72
2023-07-18T04:43:21.172Z,92952.03
2023-07-18T04:48:22.931Z,92965.47
2023-07-18T04:53:28.049Z,92961.34
2023-07-18T04:58:29.787Z,92955.44
2023-07-18T05:03:40.917Z,92956.00
2023-07-18T05:08:54.902Z,92961.78
2023-07-18T05:13:56.760Z,92956.34
2023-07-18T05:18:58.492Z,92959.16
2023-07-18T05:24:00.281Z,92956.41
2023-07-18T05:29:02.013Z,92957.22
2023-07-18T05:34:03.814Z,92961.56
2023-07-18T05:39:05.557Z,92955.03
2023-07-18T05:44:07.359Z,92955.47
2023-07-18T05:49:09.251Z,92953.53
2023-07-18T05:54:11.031Z,92927.31
2023-07-18T05:59:12.841Z,92948.53
2023-07-18T06:04:17.248Z,92932.47
2023-07-18T06:09:19.329Z,92918.06
2023-07-18T06:14:21.286Z,92925.94
2023-07-18T06:19:23.083Z,92918.16
2023-07-18T06:24:25.689Z,92909.53
2023-07-18T06:29:27.918Z,92921.69
2023-07-18T06:34:31.432Z,92916.56
2023-07-18T06:39:33.242Z,92915.03
2023-07-18T06:44:35.099Z,92911.91
2023-07-18T06:49:37.122Z,92920.91
2023-07-18T06:54:38.977Z,92921.03
2023-07-18T06:59:41.048Z,92927.28
2023-07-18T07:04:42.865Z,92915.06
2023-07-18T07:09:44.950Z,92905.31
2023-07-18T07:14:46.763Z,92816.81
2023-07-18T07:19:48.585Z,92897.56
2023-07-18T07:24:50.397Z,92885.75
2023-07-18T07:29:53.212Z,92900.06
2023-07-18T07:34:55.110Z,92912.66
2023-07-18T07:39:56.984Z,92911.94
2023-07-18T07:45:00.081Z,92861.75
2023-07-18T07:50:02.989Z,92867.59
2023-07-18T07:55:05.260Z,92883.84
2023-07-18T08:00:08.392Z,92870.59
2023-07-18T08:05:10.361Z,92845.00
2023-07-18T08:10:12.345Z,92832.34
2023-07-18T08:15:14.267Z,92811.56
2023-07-18T08:20:16.095Z,92842.69
2023-07-18T08:25:19.037Z,92803.13
2023-07-18T08:30:21.188Z,92824.53
2023-07-18T08:35:24.065Z,92804.47
2023-07-18T08:40:25.893Z,92823.69
2023-07-18T08:45:31.704Z,92776.22
2023-07-18T08:50:34.891Z,92805.06
2023-07-18T08:55:37.915Z,92778.19
2023-07-18T09:00:39.936Z,92804.09
2023-07-18T09:05:41.792Z,92813.81
2023-07-18T09:10:43.680Z,92793.66
2023-07-18T09:15:45.474Z,92786.34
2023-07-18T09:20:47.338Z,92785.88
2023-07-18T09:25:49.115Z,92751.38
2023-07-18T09:30:50.920Z,92776.19
2023-07-18T09:35:52.809Z,92766.69
2023-07-18T09:40:55.831Z,92771.50
2023-07-18T09:45:57.840Z,92753.94
2023-07-18T09:51:03.285Z,92738.34
2023-07-18T09:56:07.389Z,92719.69
2023-07-18T10:01:13.081Z,92724.81
2023-07-18T10:06:16.352Z,92732.78
2023-07-18T10:11:18.410Z,92646.81
2023-07-18T10:16:21.082Z,92699.97
2023-07-18T10:21:36.049Z,92706.09
2023-07-18T10:26:53.600Z,92697.41
2023-07-18T10:32:06.109Z,92705.03
2023-07-18T10:37:11.899Z,92690.28
2023-07-18T10:42:22.313Z,92694.63
2023-07-18T10:47:24.767Z,92676.19
2023-07-18T10:52:26.909Z,92708.44
2023-07-18T10:57:30.701Z,92719.50
2023-07-18T11:02:38.607Z,92723.50
2023-07-18T11:07:42.466Z,92692.88
2023-07-18T11:12:44.530Z,92739.69
2023-07-18T11:17:46.365Z,92726.03
2023-07-18T11:22:48.316Z,92768.00
2023-07-18T11:27:50.663Z,92738.91
2023-07-18T11:32:52.569Z,92761.75
2023-07-18T11:37:55.083Z,92776.22
2023-07-18T11:42:59.076Z,92777.56
2023-07-18T11:48:01.132Z,92741.84
2023-07-18T11:53:04.762Z,92754.03
2023-07-18T11:58:09.146Z,92732.31
2023-07-18T12:03:11.374Z,92765.16
2023-07-18T12:08:14.737Z,92774.91
2023-07-18T12:13:17.271Z,92773.00
2023-07-18T12:18:19.435Z,92771.78
2023-07-18T12:23:21.285Z,92714.69
2023-07-18T12:28:23.051Z,92758.00
2023-07-18T12:33:24.916Z,92718.59
2023-07-18T12:38:29.035Z,92710.53
2023-07-18T12:43:31.816Z,92694.09
2023-07-18T12:48:33.631Z,92727.06
2023-07-18T12:53:35.685Z,92694.69
2023-07-18T12:58:37.515Z,92718.28
2023-07-18T13:03:39.445Z,92618.63
2023-07-18T13:08:41.389Z,92666.16
2023-07-18T13:13:43.704Z,92651.47
2023-07-18T13:18:45.503Z,92658.47
2023-07-18T13:23:51.910Z,92671.53
2023-07-18T13:28:53.662Z,92650.81
2023-07-18T13:33:55.452Z,92661.44
2023-07-18T13:38:57.272Z,92650.25
2023-07-18T13:43:59.004Z,92626.97
2023-07-18T13:49:02.174Z,92657.22
2023-07-18T13:54:04.026Z,92651.69
2023-07-18T13:59:05.778Z,92650.59
2023-07-18T14:04:07.875Z,92658.91
2023-07-18T14:09:09.806Z,92657.59
2023-07-18T14:14:11.573Z,92648.47
2023-07-18T14:19:13.369Z,92635.22
2023-07-18T14:24:15.119Z,92611.25
2023-07-18T14:29:16.897Z,92617.28
2023-07-18T14:34:18.959Z,92600.22
2023-07-18T14:39:20.774Z,92594.22
2023-07-18T14:44:22.674Z,92597.78
2023-07-18T14:49:24.474Z,92593.59
2023-07-18T14:54:26.336Z,92595.06
2023-07-18T14:59:28.159Z,92582.34
2023-07-18T15:04:29.914Z,92589.38
2023-07-18T15:09:32.026Z,92611.91
2023-07-18T15:14:33.786Z,92605.75
2023-07-18T15:19:35.702Z,92634.34
2023-07-18T15:24:37.550Z,92619.78
2023-07-18T15:29:39.348Z,92616.75
2023-07-18T15:34:41.148Z,92624.50
2023-07-18T15:39:43.008Z,92639.19
2023-07-18T15:44:44.819Z,92639.50
2023-07-18T15:49:46.823Z,92645.66
2023-07-18T15:54:48.783Z,92644.78
2023-07-18T15:59:50.719Z,92614.31
2023-07-18T16:04:52.844Z,92593.06
2023-07-18T16:09:59.638Z,92626.59
2023-07-18T16:15:01.649Z,92612.91
2023-07-18T16:20:05.486Z,92627.28
2023-07-18T16:25:08.969Z,92626.03
2023-07-18T16:30:11.562Z,92648.50
2023-07-18T16:35:13.686Z,92577.59
2023-07-18T16:40:15.491Z,92622.53
2023-07-18T16:45:17.334Z,92593.75
2023-07-18T16:50:19.392Z,92589.19
2023-07-18T16:55:21.302Z,92595.66
2023-07-18T17:00:23.175Z,92589.44
2023-07-18T17:05:25.399Z,92591.53
2023-07-18T17:10:27.814Z,92577.97
2023-07-18T17:15:29.669Z,92580.28
2023-07-18T17:20:31.520Z,92550.66
2023-07-18T17:25:33.750Z,92571.69
2023-07-18T17:30:35.890Z,92582.19
2023-07-18T17:35:38.663Z,92579.22
2023-07-18T17:40:40.476Z,92563.06
2023-07-18T17:45:42.303Z,92589.91
2023-07-18T17:50:44.356Z,92588.78
2023-07-18T17:55:46.301Z,92599.94
2023-07-18T18:00:48.185Z,92561.44
2023-07-18T18:05:51.552Z,92576.53
2023-07-18T18:10:53.424Z,92591.44
2023-07-18T18:16:07.462Z,92573.31
2023-07-18T18:21:11.899Z,92611.13
2023-07-18T18:26:13.864Z,92614.50
2023-07-18T18:31:16.287Z,92597.09
2023-07-18T18:36:23.976Z,92634.81
2023-07-18T18:41:25.862Z,92620.81
2023-07-18T18:46:27.818Z,92603.66
2023-07-18T18:51:29.682Z,92623.88
2023-07-18T18:56:31.635Z,92628.47
2023-07-18T19:01:33.470Z,92605.38
2023-07-18T19:06:35.341Z,92631.03
2023-07-18T19:11:37.220Z,92661.28
2023-07-18T19:16:40.843Z,92655.63
2023-07-18T19:21:43.300Z,92615.94
2023-07-18T19:26:45.157Z,92623.34
2023-07-18T19:31:46.993Z,92670.03
2023-07-18T19:36:49.221Z,92645.13
2023-07-18T19:41:51.056Z,92678.16
2023-07-18T19:46:52.896Z,92623.34
2023-07-18T19:51:57.747Z,92602.03
2023-07-18T19:56:59.800Z,92671.59
2023-07-18T20:02:01.655Z,92684.50
2023-07-18T20:07:03.689Z,92648.41
2023-07-18T20:12:05.775Z,92647.22
2023-07-18T20:17:07.623Z,92636.97
2023-07-18T20:22:09.419Z,92646.22
2023-07-18T20:27:11.304Z,92660.19
2023-07-18T20:32:13.134Z,92639.56
2023-07-18T20:37:14.976Z,92641.81
2023-07-18T20:42:17.013Z,92653.00
2023-07-18T20:47:18.834Z,92656.91
2023-07-18T20:52:20.635Z,92659.25
2023-07-18T20:57:22.938Z,92657.28
2023-07-18T21:02:24.739Z,92634.00
2023-07-18T21:07:27.890Z,92667.59
2023-07-18T21:12:29.646Z,92677.97
2023-07-18T21:17:31.510Z,92694.91
2023-07-18T21:22:34.264Z,92681.56
2023-07-18T21:27:36.156Z,92688.94
2023-07-18T21:32:38.029Z,92701.91
2023-07-18T21:37:39.794Z,92688.22
2023-07-18T21:42:41.548Z,92683.66
2023-07-18T21:47:43.487Z,92675.22
2023-07-18T21:52:45.557Z,92708.81
2023-07-18T21:57:47.443Z,92694.97
2023-07-18T22:02:49.304Z,92709.59
2023-07-18T22:07:51.100Z,92721.91
2023-07-18T22:12:52.859Z,92724.50
2023-07-18T22:17:54.684Z,92718.50
2023-07-18T22:22:56.446Z,92725.03
2023-07-18T22:27:58.284Z,92736.56
2023-07-18T22:33:00.048Z,92732.16
2023-07-18T22:38:03.828Z,92752.16
2023-07-18T22:43:06.458Z,92759.22
2023-07-18T22:48:08.378Z,92743.41
2023-07-18T22:53:10.221Z,92757.47
2023-07-18T22:58:12.086Z,92754.06
2023-07-18T23:03:15.610Z,92748.38
2023-07-18T23:08:17.559Z,92747.25
2023-07-18T23:13:19.373Z,92758.09
2023-07-18T23:18:21.245Z,92751.13
2023-07-18T23:23:23.211Z,92757.31
2023-07-18T23:28:25.056Z,92763.00
2023-07-18T23:33:26.817Z,92764.44
2023-07-18T23:38:29.428Z,92749.88
2023-07-18T23:43:31.592Z,92725.81
2023-07-18T23:48:34.186Z,92753.72
2023-07-18T23:53:36.046Z,92739.84
2023-07-18T23:58:37.944Z,92753.25
